sensor_id;sensor_type;location;lat;lon;timestamp;P1;durP1;ratioP1;P2;durP2;ratioP2
20956;SDS011;10637;47.970;7.830;2023-12-14T00:02:52;9.53;;;4.27;;
20956;SDS011;10637;47.970;7.830;2023-12-14T00:07:54;10.33;;;3.53;;
20956;SDS011;10637;47.970;7.830;2023-12-14T00:12:56;10.03;;;3.70;;
20956;SDS011;10637;47.970;7.830;2023-12-14T00:17:58;9.57;;;3.50;;
20956;SDS011;10637;47.970;7.830;2023-12-14T00:22:59;10.33;;;3.43;;
20956;SDS011;10637;47.970;7.830;2023-12-14T00:28:01;10.63;;;3.73;;
20956;SDS011;10637;47.970;7.830;2023-12-14T00:33:03;8.77;;;3.40;;
20956;SDS011;10637;47.970;7.830;2023-12-14T00:38:05;9.10;;;3.50;;
20956;SDS011;10637;47.970;7.830;2023-12-14T00:43:07;8.00;;;3.10;;
20956;SDS011;10637;47.970;7.830;2023-12-14T00:48:08;10.10;;;3.00;;
20956;SDS011;10637;47.970;7.830;2023-12-14T00:53:10;10.83;;;3.63;;
20956;SDS011;10637;47.970;7.830;2023-12-14T00:58:12;8.70;;;3.50;;
20956;SDS011;10637;47.970;7.830;2023-12-14T01:03:14;11.60;;;4.47;;
20956;SDS011;10637;47.970;7.830;2023-12-14T01:08:16;10.67;;;3.77;;
20956;SDS011;10637;47.970;7.830;2023-12-14T01:13:18;9.60;;;3.40;;
20956;SDS011;10637;47.970;7.830;2023-12-14T01:18:20;9.37;;;3.20;;
20956;SDS011;10637;47.970;7.830;2023-12-14T01:23:21;10.07;;;3.27;;
20956;SDS011;10637;47.970;7.830;2023-12-14T01:28:23;9.90;;;3.00;;
20956;SDS011;10637;47.970;7.830;2023-12-14T01:33:25;8.67;;;3.30;;
20956;SDS011;10637;47.970;7.830;2023-12-14T01:38:27;8.80;;;3.27;;
20956;SDS011;10637;47.970;7.830;2023-12-14T01:43:29;8.83;;;3.27;;
20956;SDS011;10637;47.970;7.830;2023-12-14T01:48:31;9.37;;;3.60;;
20956;SDS011;10637;47.970;7.830;2023-12-14T01:53:32;11.00;;;4.27;;
20956;SDS011;10637;47.970;7.830;2023-12-14T01:58:34;10.13;;;3.80;;
20956;SDS011;10637;47.970;7.830;2023-12-14T02:03:43;9.50;;;4.10;;
20956;SDS011;10637;47.970;7.830;2023-12-14T02:08:50;9.90;;;4.30;;
20956;SDS011;10637;47.970;7.830;2023-12-14T02:13:51;10.33;;;4.20;;
20956;SDS011;10637;47.970;7.830;2023-12-14T02:18:53;9.83;;;3.80;;
20956;SDS011;10637;47.970;7.830;2023-12-14T02:23:55;10.67;;;3.97;;
20956;SDS011;10637;47.970;7.830;2023-12-14T02:28:57;9.97;;;4.37;;
20956;SDS011;10637;47.970;7.830;2023-12-14T02:33:59;10.83;;;4.70;;
20956;SDS011;10637;47.970;7.830;2023-12-14T02:39:01;12.87;;;4.47;;
20956;SDS011;10637;47.970;7.830;2023-12-14T02:44:03;10.10;;;5.00;;
20956;SDS011;10637;47.970;7.830;2023-12-14T02:49:04;10.37;;;4.30;;
20956;SDS011;10637;47.970;7.830;2023-12-14T02:54:06;10.97;;;4.13;;
20956;SDS011;10637;47.970;7.830;2023-12-14T02:59:08;10.23;;;4.27;;
20956;SDS011;10637;47.970;7.830;2023-12-14T03:04:10;9.43;;;4.03;;
20956;SDS011;10637;47.970;7.830;2023-12-14T03:09:12;10.73;;;4.53;;
20956;SDS011;10637;47.970;7.830;2023-12-14T03:14:14;11.80;;;4.37;;
20956;SDS011;10637;47.970;7.830;2023-12-14T03:19:15;10.33;;;4.07;;
20956;SDS011;10637;47.970;7.830;2023-12-14T03:24:17;11.70;;;4.10;;
20956;SDS011;10637;47.970;7.830;2023-12-14T03:29:19;11.77;;;3.70;;
20956;SDS011;10637;47.970;7.830;2023-12-14T03:34:22;9.90;;;3.90;;
20956;SDS011;10637;47.970;7.830;2023-12-14T03:39:24;9.03;;;3.47;;
20956;SDS011;10637;47.970;7.830;2023-12-14T03:44:26;11.47;;;4.10;;
20956;SDS011;10637;47.970;7.830;2023-12-14T03:49:28;8.57;;;3.50;;
20956;SDS011;10637;47.970;7.830;2023-12-14T03:54:30;10.20;;;3.33;;
20956;SDS011;10637;47.970;7.830;2023-12-14T03:59:32;10.53;;;3.47;;
20956;SDS011;10637;47.970;7.830;2023-12-14T04:04:34;8.57;;;3.17;;
20956;SDS011;10637;47.970;7.830;2023-12-14T04:09:36;9.03;;;2.80;;
20956;SDS011;10637;47.970;7.830;2023-12-14T04:14:38;9.27;;;2.97;;
20956;SDS011;10637;47.970;7.830;2023-12-14T04:19:39;9.30;;;3.03;;
20956;SDS011;10637;47.970;7.830;2023-12-14T04:24:41;9.73;;;2.00;;
20956;SDS011;10637;47.970;7.830;2023-12-14T04:29:43;8.00;;;2.50;;
20956;SDS011;10637;47.970;7.830;2023-12-14T04:34:45;5.70;;;1.60;;
20956;SDS011;10637;47.970;7.830;2023-12-14T04:39:46;6.63;;;1.70;;
20956;SDS011;10637;47.970;7.830;2023-12-14T04:44:48;7.90;;;2.10;;
20956;SDS011;10637;47.970;7.830;2023-12-14T04:49:50;8.47;;;2.90;;
20956;SDS011;10637;47.970;7.830;2023-12-14T04:54:52;5.60;;;1.60;;
20956;SDS011;10637;47.970;7.830;2023-12-14T04:59:53;7.00;;;1.87;;
20956;SDS011;10637;47.970;7.830;2023-12-14T05:04:55;7.13;;;1.90;;
20956;SDS011;10637;47.970;7.830;2023-12-14T05:09:57;6.33;;;1.87;;
20956;SDS011;10637;47.970;7.830;2023-12-14T05:14:58;7.57;;;2.33;;
20956;SDS011;10637;47.970;7.830;2023-12-14T05:20:00;6.53;;;2.07;;
20956;SDS011;10637;47.970;7.830;2023-12-14T05:25:03;5.37;;;1.30;;
20956;SDS011;10637;47.970;7.830;2023-12-14T05:30:05;4.60;;;1.47;;
20956;SDS011;10637;47.970;7.830;2023-12-14T05:35:08;6.70;;;1.90;;
20956;SDS011;10637;47.970;7.830;2023-12-14T05:40:11;9.17;;;2.00;;
20956;SDS011;10637;47.970;7.830;2023-12-14T05:45:13;5.33;;;1.50;;
20956;SDS011;10637;47.970;7.830;2023-12-14T05:50:14;5.80;;;1.50;;
20956;SDS011;10637;47.970;7.830;2023-12-14T05:55:16;6.67;;;1.70;;
20956;SDS011;10637;47.970;7.830;2023-12-14T06:00:22;6.77;;;1.80;;
20956;SDS011;10637;47.970;7.830;2023-12-14T06:05:24;5.70;;;1.60;;
20956;SDS011;10637;47.970;7.830;2023-12-14T06:10:26;7.03;;;1.97;;
20956;SDS011;10637;47.970;7.830;2023-12-14T06:15:28;8.20;;;2.10;;
20956;SDS011;10637;47.970;7.830;2023-12-14T06:20:29;6.70;;;1.90;;
20956;SDS011;10637;47.970;7.830;2023-12-14T06:25:31;7.70;;;2.60;;
20956;SDS011;10637;47.970;7.830;2023-12-14T06:30:33;6.70;;;1.93;;
20956;SDS011;10637;47.970;7.830;2023-12-14T06:35:35;7.03;;;2.43;;
20956;SDS011;10637;47.970;7.830;2023-12-14T06:40:37;7.83;;;2.20;;
20956;SDS011;10637;47.970;7.830;2023-12-14T06:45:39;6.30;;;1.80;;
20956;SDS011;10637;47.970;7.830;2023-12-14T06:50:41;7.00;;;2.40;;
20956;SDS011;10637;47.970;7.830;2023-12-14T06:55:44;9.07;;;2.90;;
20956;SDS011;10637;47.970;7.830;2023-12-14T07:00:46;6.40;;;1.80;;
20956;SDS011;10637;47.970;7.830;2023-12-14T07:05:48;8.37;;;2.70;;
20956;SDS011;10637;47.970;7.830;2023-12-14T07:10:50;9.77;;;1.93;;
20956;SDS011;10637;47.970;7.830;2023-12-14T07:15:52;8.77;;;2.40;;
20956;SDS011;10637;47.970;7.830;2023-12-14T07:20:54;7.07;;;2.40;;
20956;SDS011;10637;47.970;7.830;2023-12-14T07:25:55;8.03;;;2.80;;
20956;SDS011;10637;47.970;7.830;2023-12-14T07:31:00;7.67;;;2.80;;
20956;SDS011;10637;47.970;7.830;2023-12-14T07:36:02;8.53;;;2.40;;
20956;SDS011;10637;47.970;7.830;2023-12-14T07:41:06;11.53;;;4.37;;
20956;SDS011;10637;47.970;7.830;2023-12-14T07:46:08;12.77;;;5.80;;
20956;SDS011;10637;47.970;7.830;2023-12-14T07:51:09;8.90;;;3.30;;
20956;SDS011;10637;47.970;7.830;2023-12-14T07:56:11;8.33;;;2.50;;
20956;SDS011;10637;47.970;7.830;2023-12-14T08:01:13;7.40;;;2.13;;
20956;SDS011;10637;47.970;7.830;2023-12-14T08:06:15;7.73;;;2.63;;
20956;SDS011;10637;47.970;7.830;2023-12-14T08:11:17;14.43;;;5.73;;
20956;SDS011;10637;47.970;7.830;2023-12-14T08:16:19;12.17;;;5.23;;
20956;SDS011;10637;47.970;7.830;2023-12-14T08:21:20;10.60;;;4.10;;
20956;SDS011;10637;47.970;7.830;2023-12-14T08:26:22;9.63;;;3.20;;
20956;SDS011;10637;47.970;7.830;2023-12-14T08:31:24;8.53;;;3.17;;
20956;SDS011;10637;47.970;7.830;2023-12-14T08:36:27;11.03;;;4.00;;
20956;SDS011;10637;47.970;7.830;2023-12-14T08:41:29;12.27;;;4.87;;
20956;SDS011;10637;47.970;7.830;2023-12-14T08:46:38;11.70;;;4.93;;
20956;SDS011;10637;47.970;7.830;2023-12-14T08:51:43;10.93;;;4.73;;
20956;SDS011;10637;47.970;7.830;2023-12-14T08:56:44;17.37;;;8.47;;
20956;SDS011;10637;47.970;7.830;2023-12-14T09:01:46;55.10;;;21.00;;
20956;SDS011;10637;47.970;7.830;2023-12-14T09:06:48;14.97;;;6.33;;
20956;SDS011;10637;47.970;7.830;2023-12-14T09:11:50;13.60;;;6.33;;
20956;SDS011;10637;47.970;7.830;2023-12-14T09:16:55;11.23;;;4.50;;
20956;SDS011;10637;47.970;7.830;2023-12-14T09:21:57;12.80;;;4.60;;
20956;SDS011;10637;47.970;7.830;2023-12-14T09:26:59;11.03;;;4.57;;
20956;SDS011;10637;47.970;7.830;2023-12-14T09:32:01;11.73;;;4.53;;
20956;SDS011;10637;47.970;7.830;2023-12-14T09:37:03;11.77;;;4.60;;
20956;SDS011;10637;47.970;7.830;2023-12-14T09:42:05;9.60;;;3.80;;
20956;SDS011;10637;47.970;7.830;2023-12-14T09:47:08;8.50;;;3.33;;
20956;SDS011;10637;47.970;7.830;2023-12-14T09:52:10;9.40;;;3.27;;
20956;SDS011;10637;47.970;7.830;2023-12-14T09:57:12;8.77;;;3.07;;
20956;SDS011;10637;47.970;7.830;2023-12-14T10:02:14;8.53;;;3.10;;
20956;SDS011;10637;47.970;7.830;2023-12-14T10:07:16;8.87;;;3.13;;
20956;SDS011;10637;47.970;7.830;2023-12-14T10:12:18;8.57;;;2.67;;
20956;SDS011;10637;47.970;7.830;2023-12-14T10:17:22;8.70;;;3.23;;
20956;SDS011;10637;47.970;7.830;2023-12-14T10:22:33;10.17;;;3.47;;
20956;SDS011;10637;47.970;7.830;2023-12-14T10:27:37;10.93;;;3.30;;
20956;SDS011;10637;47.970;7.830;2023-12-14T10:32:38;8.63;;;3.00;;
20956;SDS011;10637;47.970;7.830;2023-12-14T10:37:42;8.87;;;3.27;;
20956;SDS011;10637;47.970;7.830;2023-12-14T10:42:44;10.53;;;3.43;;
20956;SDS011;10637;47.970;7.830;2023-12-14T10:47:47;8.97;;;3.40;;
20956;SDS011;10637;47.970;7.830;2023-12-14T10:52:52;9.57;;;3.70;;
20956;SDS011;10637;47.970;7.830;2023-12-14T10:57:54;8.40;;;3.57;;
20956;SDS011;10637;47.970;7.830;2023-12-14T11:02:56;9.27;;;4.07;;
20956;SDS011;10637;47.970;7.830;2023-12-14T11:08:04;10.17;;;4.47;;
20956;SDS011;10637;47.970;7.830;2023-12-14T11:13:14;9.10;;;3.93;;
20956;SDS011;10637;47.970;7.830;2023-12-14T11:18:19;9.73;;;4.33;;
20956;SDS011;10637;47.970;7.830;2023-12-14T11:23:28;9.90;;;3.70;;
20956;SDS011;10637;47.970;7.830;2023-12-14T11:28:38;10.30;;;4.10;;
20956;SDS011;10637;47.970;7.830;2023-12-14T11:33:45;8.97;;;3.43;;
20956;SDS011;10637;47.970;7.830;2023-12-14T11:38:49;9.60;;;3.50;;
20956;SDS011;10637;47.970;7.830;2023-12-14T11:43:54;9.13;;;4.10;;
20956;SDS011;10637;47.970;7.830;2023-12-14T11:48:57;10.60;;;3.63;;
20956;SDS011;10637;47.970;7.830;2023-12-14T11:54:00;11.87;;;4.07;;
20956;SDS011;10637;47.970;7.830;2023-12-14T11:59:03;9.40;;;4.00;;
20956;SDS011;10637;47.970;7.830;2023-12-14T12:04:08;9.87;;;4.50;;
20956;SDS011;10637;47.970;7.830;2023-12-14T12:09:11;9.20;;;4.07;;
20956;SDS011;10637;47.970;7.830;2023-12-14T12:14:14;8.70;;;4.10;;
20956;SDS011;10637;47.970;7.830;2023-12-14T12:19:16;11.03;;;5.20;;
20956;SDS011;10637;47.970;7.830;2023-12-14T12:24:18;9.03;;;4.30;;
20956;SDS011;10637;47.970;7.830;2023-12-14T12:29:27;9.70;;;4.00;;
20956;SDS011;10637;47.970;7.830;2023-12-14T12:34:29;9.53;;;3.80;;
20956;SDS011;10637;47.970;7.830;2023-12-14T12:39:31;8.67;;;3.50;;
20956;SDS011;10637;47.970;7.830;2023-12-14T12:44:33;8.37;;;3.43;;
20956;SDS011;10637;47.970;7.830;2023-12-14T12:49:34;8.13;;;3.07;;
20956;SDS011;10637;47.970;7.830;2023-12-14T12:54:36;8.83;;;3.30;;
20956;SDS011;10637;47.970;7.830;2023-12-14T12:59:38;9.60;;;2.80;;
20956;SDS011;10637;47.970;7.830;2023-12-14T13:04:40;11.93;;;4.00;;
20956;SDS011;10637;47.970;7.830;2023-12-14T13:09:42;33.40;;;12.83;;
20956;SDS011;10637;47.970;7.830;2023-12-14T13:14:44;9.73;;;4.13;;
20956;SDS011;10637;47.970;7.830;2023-12-14T13:19:46;10.17;;;3.87;;
20956;SDS011;10637;47.970;7.830;2023-12-14T13:24:47;9.10;;;4.00;;
20956;SDS011;10637;47.970;7.830;2023-12-14T13:29:51;9.03;;;3.60;;
20956;SDS011;10637;47.970;7.830;2023-12-14T13:34:52;9.77;;;3.47;;
20956;SDS011;10637;47.970;7.830;2023-12-14T13:39:54;8.73;;;3.53;;
20956;SDS011;10637;47.970;7.830;2023-12-14T13:44:56;8.60;;;3.17;;
20956;SDS011;10637;47.970;7.830;2023-12-14T13:49:58;10.90;;;4.67;;
20956;SDS011;10637;47.970;7.830;2023-12-14T13:54:59;7.83;;;2.90;;
20956;SDS011;10637;47.970;7.830;2023-12-14T14:00:01;7.67;;;2.63;;
20956;SDS011;10637;47.970;7.830;2023-12-14T14:05:03;10.77;;;4.03;;
20956;SDS011;10637;47.970;7.830;2023-12-14T14:10:05;9.43;;;3.93;;
20956;SDS011;10637;47.970;7.830;2023-12-14T14:15:08;13.37;;;4.43;;
20956;SDS011;10637;47.970;7.830;2023-12-14T14:20:10;11.27;;;4.90;;
20956;SDS011;10637;47.970;7.830;2023-12-14T14:25:12;10.00;;;3.60;;
20956;SDS011;10637;47.970;7.830;2023-12-14T14:30:14;13.63;;;5.17;;
20956;SDS011;10637;47.970;7.830;2023-12-14T14:35:17;13.60;;;6.00;;
20956;SDS011;10637;47.970;7.830;2023-12-14T14:40:20;10.23;;;4.13;;
20956;SDS011;10637;47.970;7.830;2023-12-14T14:45:23;8.73;;;3.23;;
20956;SDS011;10637;47.970;7.830;2023-12-14T14:50:25;14.50;;;7.03;;
20956;SDS011;10637;47.970;7.830;2023-12-14T14:55:28;9.00;;;3.10;;
20956;SDS011;10637;47.970;7.830;2023-12-14T15:00:30;9.57;;;3.73;;
20956;SDS011;10637;47.970;7.830;2023-12-14T15:05:34;8.67;;;2.97;;
20956;SDS011;10637;47.970;7.830;2023-12-14T15:10:35;10.83;;;2.57;;
20956;SDS011;10637;47.970;7.830;2023-12-14T15:15:37;8.50;;;2.60;;
20956;SDS011;10637;47.970;7.830;2023-12-14T15:20:40;10.80;;;3.33;;
20956;SDS011;10637;47.970;7.830;2023-12-14T15:25:41;8.37;;;3.60;;
20956;SDS011;10637;47.970;7.830;2023-12-14T15:30:43;11.20;;;3.60;;
20956;SDS011;10637;47.970;7.830;2023-12-14T15:35:45;12.30;;;4.50;;
20956;SDS011;10637;47.970;7.830;2023-12-14T15:40:47;10.03;;;3.73;;
20956;SDS011;10637;47.970;7.830;2023-12-14T15:45:49;10.33;;;4.10;;
20956;SDS011;10637;47.970;7.830;2023-12-14T15:50:51;10.23;;;3.40;;
20956;SDS011;10637;47.970;7.830;2023-12-14T15:55:53;10.73;;;4.20;;
20956;SDS011;10637;47.970;7.830;2023-12-14T16:00:55;7.40;;;2.50;;
20956;SDS011;10637;47.970;7.830;2023-12-14T16:05:56;9.33;;;2.80;;
20956;SDS011;10637;47.970;7.830;2023-12-14T16:10:58;15.23;;;9.47;;
20956;SDS011;10637;47.970;7.830;2023-12-14T16:16:00;9.17;;;3.53;;
20956;SDS011;10637;47.970;7.830;2023-12-14T16:21:02;8.20;;;2.60;;
20956;SDS011;10637;47.970;7.830;2023-12-14T16:26:04;9.97;;;4.17;;
20956;SDS011;10637;47.970;7.830;2023-12-14T16:31:06;9.87;;;3.43;;
20956;SDS011;10637;47.970;7.830;2023-12-14T16:36:12;8.70;;;3.20;;
20956;SDS011;10637;47.970;7.830;2023-12-14T16:41:14;7.77;;;2.70;;
20956;SDS011;10637;47.970;7.830;2023-12-14T16:46:21;10.33;;;3.00;;
20956;SDS011;10637;47.970;7.830;2023-12-14T16:51:24;8.53;;;3.40;;
20956;SDS011;10637;47.970;7.830;2023-12-14T16:56:30;8.80;;;3.37;;
20956;SDS011;10637;47.970;7.830;2023-12-14T17:01:32;8.27;;;3.20;;
20956;SDS011;10637;47.970;7.830;2023-12-14T17:06:34;9.70;;;3.17;;
20956;SDS011;10637;47.970;7.830;2023-12-14T17:11:36;9.30;;;3.00;;
20956;SDS011;10637;47.970;7.830;2023-12-14T17:16:38;10.17;;;3.03;;
20956;SDS011;10637;47.970;7.830;2023-12-14T17:21:40;12.17;;;6.20;;
20956;SDS011;10637;47.970;7.830;2023-12-14T17:26:42;10.10;;;4.30;;
20956;SDS011;10637;47.970;7.830;2023-12-14T17:31:44;9.47;;;4.27;;
20956;SDS011;10637;47.970;7.830;2023-12-14T17:36:46;10.80;;;3.63;;
20956;SDS011;10637;47.970;7.830;2023-12-14T17:41:48;10.53;;;3.83;;
20956;SDS011;10637;47.970;7.830;2023-12-14T17:46:50;11.27;;;3.70;;
20956;SDS011;10637;47.970;7.830;2023-12-14T17:51:52;10.03;;;4.20;;
20956;SDS011;10637;47.970;7.830;2023-12-14T17:56:53;29.50;;;11.20;;
20956;SDS011;10637;47.970;7.830;2023-12-14T18:01:55;15.90;;;6.63;;
20956;SDS011;10637;47.970;7.830;2023-12-14T18:06:58;13.00;;;5.50;;
20956;SDS011;10637;47.970;7.830;2023-12-14T18:12:04;11.67;;;5.20;;
20956;SDS011;10637;47.970;7.830;2023-12-14T18:17:06;11.63;;;5.67;;
20956;SDS011;10637;47.970;7.830;2023-12-14T18:22:08;14.53;;;6.60;;
20956;SDS011;10637;47.970;7.830;2023-12-14T18:27:10;15.50;;;7.43;;
20956;SDS011;10637;47.970;7.830;2023-12-14T18:32:11;16.47;;;8.60;;
20956;SDS011;10637;47.970;7.830;2023-12-14T18:37:13;17.20;;;8.30;;
20956;SDS011;10637;47.970;7.830;2023-12-14T18:42:15;12.60;;;6.70;;
20956;SDS011;10637;47.970;7.830;2023-12-14T18:47:17;15.33;;;7.40;;
20956;SDS011;10637;47.970;7.830;2023-12-14T18:52:19;13.43;;;5.80;;
20956;SDS011;10637;47.970;7.830;2023-12-14T18:57:21;14.27;;;6.00;;
20956;SDS011;10637;47.970;7.830;2023-12-14T19:02:23;12.00;;;4.87;;
20956;SDS011;10637;47.970;7.830;2023-12-14T19:07:28;14.63;;;6.20;;
20956;SDS011;10637;47.970;7.830;2023-12-14T19:12:30;12.63;;;6.47;;
20956;SDS011;10637;47.970;7.830;2023-12-14T19:17:32;15.20;;;7.60;;
20956;SDS011;10637;47.970;7.830;2023-12-14T19:22:34;16.13;;;7.57;;
20956;SDS011;10637;47.970;7.830;2023-12-14T19:27:40;16.77;;;8.13;;
20956;SDS011;10637;47.970;7.830;2023-12-14T20:20:41;20.60;;;8.97;;
20956;SDS011;10637;47.970;7.830;2023-12-14T20:25:43;21.03;;;10.97;;
20956;SDS011;10637;47.970;7.830;2023-12-14T20:30:46;20.33;;;10.60;;
20956;SDS011;10637;47.970;7.830;2023-12-14T20:35:48;22.47;;;10.83;;
20956;SDS011;10637;47.970;7.830;2023-12-14T20:40:50;23.97;;;11.63;;
20956;SDS011;10637;47.970;7.830;2023-12-14T20:45:56;22.73;;;12.20;;
20956;SDS011;10637;47.970;7.830;2023-12-14T20:50:58;21.90;;;11.27;;
20956;SDS011;10637;47.970;7.830;2023-12-14T20:56:00;23.03;;;11.57;;
20956;SDS011;10637;47.970;7.830;2023-12-14T21:01:02;22.77;;;12.17;;
20956;SDS011;10637;47.970;7.830;2023-12-14T21:06:05;21.40;;;11.07;;
20956;SDS011;10637;47.970;7.830;2023-12-14T21:11:09;22.33;;;10.80;;
20956;SDS011;10637;47.970;7.830;2023-12-14T21:16:11;20.30;;;10.50;;
20956;SDS011;10637;47.970;7.830;2023-12-14T21:21:16;19.70;;;9.23;;
20956;SDS011;10637;47.970;7.830;2023-12-14T21:26:17;22.07;;;10.67;;
20956;SDS011;10637;47.970;7.830;2023-12-14T21:31:21;19.83;;;9.20;;
20956;SDS011;10637;47.970;7.830;2023-12-14T21:36:23;21.90;;;10.27;;
20956;SDS011;10637;47.970;7.830;2023-12-14T21:41:25;14.27;;;6.97;;
20956;SDS011;10637;47.970;7.830;2023-12-14T21:46:29;12.80;;;5.87;;
20956;SDS011;10637;47.970;7.830;2023-12-14T21:51:31;19.30;;;9.97;;
20956;SDS011;10637;47.970;7.830;2023-12-14T21:56:33;16.37;;;7.60;;
20956;SDS011;10637;47.970;7.830;2023-12-14T22:01:35;14.37;;;6.80;;
20956;SDS011;10637;47.970;7.830;2023-12-14T22:06:37;13.43;;;6.83;;
20956;SDS011;10637;47.970;7.830;2023-12-14T22:11:39;14.03;;;6.37;;
20956;SDS011;10637;47.970;7.830;2023-12-14T22:16:41;12.57;;;5.97;;
20956;SDS011;10637;47.970;7.830;2023-12-14T22:21:43;13.80;;;6.47;;
20956;SDS011;10637;47.970;7.830;2023-12-14T22:26:45;16.03;;;6.83;;
20956;SDS011;10637;47.970;7.830;2023-12-14T22:31:49;18.13;;;6.33;;
20956;SDS011;10637;47.970;7.830;2023-12-14T22:36:51;17.47;;;7.30;;
20956;SDS011;10637;47.970;7.830;2023-12-14T22:41:53;18.00;;;7.37;;
20956;SDS011;10637;47.970;7.830;2023-12-14T22:46:54;20.50;;;7.63;;
20956;SDS011;10637;47.970;7.830;2023-12-14T22:51:56;17.63;;;7.93;;
20956;SDS011;10637;47.970;7.830;2023-12-14T22:56:58;20.17;;;8.90;;
20956;SDS011;10637;47.970;7.830;2023-12-14T23:02:00;17.40;;;8.13;;
20956;SDS011;10637;47.970;7.830;2023-12-14T23:07:01;17.20;;;7.87;;
20956;SDS011;10637;47.970;7.830;2023-12-14T23:12:03;16.70;;;8.95;;
20956;SDS011;10637;47.970;7.830;2023-12-14T23:17:05;16.17;;;6.83;;
20956;SDS011;10637;47.970;7.830;2023-12-14T23:22:07;16.33;;;6.57;;
20956;SDS011;10637;47.970;7.830;2023-12-14T23:27:10;15.13;;;5.77;;
20956;SDS011;10637;47.970;7.830;2023-12-14T23:32:12;14.40;;;5.80;;
20956;SDS011;10637;47.970;7.830;2023-12-14T23:37:14;13.27;;;5.77;;
20956;SDS011;10637;47.970;7.830;2023-12-14T23:42:15;13.70;;;5.90;;
20956;SDS011;10637;47.970;7.830;2023-12-14T23:47:17;12.80;;;5.13;;
20956;SDS011;10637;47.970;7.830;2023-12-14T23:52:19;12.17;;;4.70;;
20956;SDS011;10637;47.970;7.830;2023-12-14T23:57:21;12.90;;;5.37;;
